Time;durP1;ratioP1;P1;durP2;ratioP2;P2;SDS_P1;SDS_P2;PMS_P1;PMS_P2;Temp;Humidity;BMP_temperature;BMP_pressure;BME280_temperature;BME280_humidity;BME280_pressure;Samples;Min_cycle;Max_cycle;Signal;HPM_P1;HPM_P2
2023/05/06 00:00:25;;;;;;;9.50;8.52;;;;;;;;;;5081695;28;20257;-70
2023/05/06 00:02:52;;;;;;;14.55;9.90;;;;;;;;;;5082169;28;20219;-70
2023/05/06 00:05:18;;;;;;;8.02;7.13;;;;;;;;;;5082049;28;20227;-70
2023/05/06 00:07:45;;;;;;;14.60;7.90;;;;;;;;;;5081890;28;20557;-70
2023/05/06 00:10:11;;;;;;;9.70;7.47;;;;;;;;;;5081950;28;20394;-70
2023/05/06 00:12:38;;;;;;;10.85;7.95;;;;;;;;;;5081847;28;20416;-70
2023/05/06 00:15:06;;;;;;;8.73;7.88;;;;;;;;;;5081703;28;20275;-70
2023/05/06 00:17:32;;;;;;;8.07;7.28;;;;;;;;;;5081647;28;20246;-70
2023/05/06 00:19:58;;;;;;;10.07;7.22;;;;;;;;;;5081616;28;20222;-70
2023/05/06 00:22:25;;;;;;;9.27;7.32;;;;;;;;;;5081597;28;20201;-70
2023/05/06 00:24:51;;;;;;;9.30;7.30;;;;;;;;;;5081776;28;20475;-70
2023/05/06 00:27:17;;;;;;;7.32;6.63;;;;;;;;;;5081425;28;20262;-70
2023/05/06 00:29:43;;;;;;;11.80;7.30;;;;;;;;;;5081295;28;20231;-70
2023/05/06 00:32:11;;;;;;;9.32;7.30;;;;;;;;;;5081619;28;20200;-71
2023/05/06 00:34:37;;;;;;;7.65;6.85;;;;;;;;;;5081890;28;20200;-68
2023/05/06 00:37:03;;;;;;;8.38;7.05;;;;;;;;;;5081810;28;20246;-69
2023/05/06 00:39:30;;;;;;;8.95;8.15;;;;;;;;;;5084836;28;20228;-69
2023/05/06 00:41:59;;;;;;;10.98;8.55;;;;;;;;;;5085640;28;20238;-69
2023/05/06 00:44:25;;;;;;;9.57;8.63;;;;;;;;;;5085273;28;20246;-69
2023/05/06 00:46:51;;;;;;;9.63;8.68;;;;;;;;;;5085609;28;20212;-69
2023/05/06 00:49:19;;;;;;;9.57;8.40;;;;;;;;;;5085575;28;20204;-69
2023/05/06 00:51:45;;;;;;;10.57;9.63;;;;;;;;;;5085548;28;20218;-69
2023/05/06 00:54:12;;;;;;;10.00;9.10;;;;;;;;;;5085517;28;20253;-69
2023/05/06 00:56:38;;;;;;;10.40;9.15;;;;;;;;;;5085163;28;20200;-69
2023/05/06 00:59:04;;;;;;;11.43;10.43;;;;;;;;;;5085125;28;20216;-69
2023/05/06 01:01:32;;;;;;;11.30;10.10;;;;;;;;;;5084953;28;20253;-69
2023/05/06 01:03:58;;;;;;;11.65;10.43;;;;;;;;;;5085306;28;20242;-69
2023/05/06 01:06:27;;;;;;;11.73;10.65;;;;;;;;;;5084780;28;20204;-69
2023/05/06 01:08:57;;;;;;;13.65;11.13;;;;;;;;;;5077205;28;20200;-69
2023/05/06 01:11:27;;;;;;;9.93;9.18;;;;;;;;;;5085084;28;20508;-69
2023/05/06 01:13:58;;;;;;;13.38;10.02;;;;;;;;;;5077116;28;20204;-69
2023/05/06 01:16:26;;;;;;;10.75;9.70;;;;;;;;;;5085153;28;20207;-69
2023/05/06 01:18:53;;;;;;;10.60;9.40;;;;;;;;;;5076884;28;20543;-69
2023/05/06 01:21:21;;;;;;;11.02;9.70;;;;;;;;;;5084635;28;20339;-69
2023/05/06 01:23:51;;;;;;;9.63;8.73;;;;;;;;;;5084850;28;20196;-69
2023/05/06 01:26:18;;;;;;;10.10;9.30;;;;;;;;;;5084775;28;20515;-69
2023/05/06 01:28:44;;;;;;;12.80;9.50;;;;;;;;;;5084576;28;20607;-69
2023/05/06 01:31:12;;;;;;;10.90;9.85;;;;;;;;;;5084535;28;20527;-69
2023/05/06 01:33:41;;;;;;;11.65;10.40;;;;;;;;;;5084498;28;20200;-69
2023/05/06 01:36:10;;;;;;;11.15;10.05;;;;;;;;;;5084836;28;20322;-69
2023/05/06 01:38:39;;;;;;;10.68;9.50;;;;;;;;;;5084428;28;20220;-69
2023/05/06 01:41:07;;;;;;;16.75;11.65;;;;;;;;;;5084392;28;20453;-69
2023/05/06 01:43:37;;;;;;;11.80;10.75;;;;;;;;;;5084481;28;20207;-69
2023/05/06 01:46:03;;;;;;;11.68;10.63;;;;;;;;;;5084363;28;20437;-69
2023/05/06 01:48:31;;;;;;;11.07;9.98;;;;;;;;;;5084082;28;20445;-69
2023/05/06 01:50:58;;;;;;;11.13;9.90;;;;;;;;;;5084206;28;20204;-69
2023/05/06 01:53:24;;;;;;;11.77;10.57;;;;;;;;;;5084678;28;20208;-69
2023/05/06 01:55:50;;;;;;;11.30;10.20;;;;;;;;;;5084543;28;20205;-69
2023/05/06 01:58:18;;;;;;;11.38;10.20;;;;;;;;;;5084132;28;20265;-69
2023/05/06 02:00:44;;;;;;;10.82;9.30;;;;;;;;;;5083872;28;20455;-70
2023/05/06 02:03:10;;;;;;;9.68;8.77;;;;;;;;;;5084078;28;20206;-69
2023/05/06 02:05:36;;;;;;;9.50;8.60;;;;;;;;;;5083879;28;20208;-69
2023/05/06 02:08:03;;;;;;;10.90;7.43;;;;;;;;;;5083911;28;20382;-69
2023/05/06 02:10:29;;;;;;;7.57;6.88;;;;;;;;;;5083908;28;20200;-69
2023/05/06 02:12:56;;;;;;;6.95;6.35;;;;;;;;;;5083796;28;20211;-69
2023/05/06 02:15:23;;;;;;;6.38;5.78;;;;;;;;;;5083821;28;20201;-69
2023/05/06 02:17:49;;;;;;;7.40;6.68;;;;;;;;;;5083665;28;20215;-69
2023/05/06 02:20:16;;;;;;;5.80;5.43;;;;;;;;;;5083446;28;20232;-69
2023/05/06 02:22:42;;;;;;;6.05;5.50;;;;;;;;;;5083715;28;20438;-71
2023/05/06 02:25:09;;;;;;;5.60;5.10;;;;;;;;;;5083678;28;20201;-69
2023/05/06 02:27:35;;;;;;;6.40;5.22;;;;;;;;;;5083390;28;20283;-70
2023/05/06 02:30:01;;;;;;;6.07;5.57;;;;;;;;;;5083336;28;20200;-69
2023/05/06 02:32:29;;;;;;;5.40;5.00;;;;;;;;;;5083762;28;20207;-69
2023/05/06 02:34:55;;;;;;;6.20;5.70;;;;;;;;;;5075316;28;20242;-69
2023/05/06 02:37:22;;;;;;;6.50;5.78;;;;;;;;;;5083410;28;20224;-69
2023/05/06 02:39:48;;;;;;;8.63;5.95;;;;;;;;;;5082990;28;20396;-69
2023/05/06 02:42:15;;;;;;;6.30;5.55;;;;;;;;;;5083427;28;20222;-69
2023/05/06 02:44:41;;;;;;;7.45;5.88;;;;;;;;;;5082820;28;20508;-69
2023/05/06 02:47:07;;;;;;;7.00;6.40;;;;;;;;;;5083311;28;20207;-69
2023/05/06 02:49:35;;;;;;;12.48;6.78;;;;;;;;;;5082930;28;20204;-69
2023/05/06 02:52:01;;;;;;;7.72;6.43;;;;;;;;;;5083184;28;20207;-69
2023/05/06 02:54:27;;;;;;;7.47;6.88;;;;;;;;;;5083195;28;20201;-69
2023/05/06 02:56:53;;;;;;;11.90;8.27;;;;;;;;;;5082887;28;20196;-69
2023/05/06 02:59:20;;;;;;;9.25;7.53;;;;;;;;;;5082723;28;20469;-69
2023/05/06 03:01:47;;;;;;;11.23;7.65;;;;;;;;;;5082163;28;20208;-69
2023/05/06 03:04:13;;;;;;;12.70;7.05;;;;;;;;;;5083081;28;20200;-69
2023/05/06 03:06:41;;;;;;;6.72;6.00;;;;;;;;;;5082719;28;20207;-69
2023/05/06 03:09:07;;;;;;;11.35;7.60;;;;;;;;;;5082729;28;20460;-69
2023/05/06 03:11:33;;;;;;;7.93;7.13;;;;;;;;;;5082371;28;20206;-71
2023/05/06 03:13:59;;;;;;;7.50;6.80;;;;;;;;;;5082697;28;20382;-69
2023/05/06 03:16:26;;;;;;;7.35;6.68;;;;;;;;;;5082807;28;20201;-69
2023/05/06 03:18:52;;;;;;;12.25;7.32;;;;;;;;;;5082379;28;20239;-69
2023/05/06 03:21:18;;;;;;;10.32;7.50;;;;;;;;;;5082512;28;20208;-69
2023/05/06 03:23:46;;;;;;;11.07;7.72;;;;;;;;;;5082380;28;20215;-69
2023/05/06 03:26:12;;;;;;;12.55;8.13;;;;;;;;;;5082330;28;20500;-69
2023/05/06 03:28:38;;;;;;;12.18;8.55;;;;;;;;;;5082330;28;20560;-69
2023/05/06 03:31:05;;;;;;;8.82;7.13;;;;;;;;;;5082114;28;20435;-69
2023/05/06 03:33:31;;;;;;;10.43;7.85;;;;;;;;;;5082538;28;20207;-69
2023/05/06 03:35:57;;;;;;;9.68;7.28;;;;;;;;;;5082240;28;20500;-69
2023/05/06 03:38:24;;;;;;;8.77;7.30;;;;;;;;;;5082258;28;20403;-69
2023/05/06 03:40:52;;;;;;;8.02;7.32;;;;;;;;;;5082015;28;20206;-69
2023/05/06 03:43:18;;;;;;;7.38;6.78;;;;;;;;;;5082197;28;20204;-69
2023/05/06 03:45:45;;;;;;;6.95;6.35;;;;;;;;;;5082241;28;20207;-69
2023/05/06 03:48:11;;;;;;;7.57;6.30;;;;;;;;;;5082190;28;20373;-69
2023/05/06 03:50:38;;;;;;;39.00;8.80;;;;;;;;;;5082068;28;20196;-69
2023/05/06 03:53:04;;;;;;;9.70;8.77;;;;;;;;;;5082072;28;20201;-69
2023/05/06 03:55:31;;;;;;;9.35;8.27;;;;;;;;;;5082063;28;20208;-69
2023/05/06 03:57:58;;;;;;;10.50;9.50;;;;;;;;;;5082035;28;20193;-69
2023/05/06 04:00:25;;;;;;;9.35;8.55;;;;;;;;;;5082009;28;20453;-69
2023/05/06 04:02:51;;;;;;;6.72;6.13;;;;;;;;;;5081873;28;20207;-69
2023/05/06 04:05:17;;;;;;;6.35;5.85;;;;;;;;;;5082057;28;20200;-69
2023/05/06 04:07:44;;;;;;;7.43;5.82;;;;;;;;;;5081831;28;20211;-69
2023/05/06 04:10:10;;;;;;;10.45;5.70;;;;;;;;;;5081593;28;20268;-69
2023/05/06 04:12:36;;;;;;;10.88;6.15;;;;;;;;;;5081735;28;20200;-69
2023/05/06 04:15:06;;;;;;;8.68;5.55;;;;;;;;;;5081731;28;20205;-69
2023/05/06 04:17:32;;;;;;;8.15;7.13;;;;;;;;;;5081883;28;20200;-71
2023/05/06 04:20:05;;;;;;;11.05;7.63;;;;;;;;;;5081478;28;20223;-71
2023/05/06 04:22:32;;;;;;;11.73;8.20;;;;;;;;;;5081747;28;20267;-71
2023/05/06 04:24:59;;;;;;;10.48;8.55;;;;;;;;;;5081868;28;20238;-71
2023/05/06 04:27:28;;;;;;;17.52;9.07;;;;;;;;;;5081730;28;20220;-71
2023/05/06 04:29:54;;;;;;;12.23;9.40;;;;;;;;;;5081520;28;20203;-71
2023/05/06 04:32:24;;;;;;;14.18;9.20;;;;;;;;;;5081673;28;20208;-71
2023/05/06 04:34:50;;;;;;;12.05;9.52;;;;;;;;;;5081611;28;20275;-71
2023/05/06 04:37:17;;;;;;;10.45;9.35;;;;;;;;;;5081624;28;20200;-71
2023/05/06 04:39:46;;;;;;;19.58;9.43;;;;;;;;;;5081547;28;20283;-71
2023/05/06 04:42:12;;;;;;;11.27;8.93;;;;;;;;;;5081676;28;20210;-71
2023/05/06 04:44:38;;;;;;;13.52;8.85;;;;;;;;;;5081572;28;20207;-71
2023/05/06 04:47:04;;;;;;;10.82;8.90;;;;;;;;;;5081594;28;20200;-71
2023/05/06 04:49:32;;;;;;;9.57;8.68;;;;;;;;;;5081343;28;20196;-71
2023/05/06 04:51:58;;;;;;;10.48;8.98;;;;;;;;;;5081369;28;20212;-71
2023/05/06 04:54:24;;;;;;;16.17;9.48;;;;;;;;;;5081646;28;20200;-71
2023/05/06 04:56:51;;;;;;;19.88;9.50;;;;;;;;;;5081323;28;20200;-71
2023/05/06 04:59:17;;;;;;;10.98;9.00;;;;;;;;;;5081390;28;20232;-71
2023/05/06 05:01:43;;;;;;;10.60;8.90;;;;;;;;;;5081264;28;20503;-71
2023/05/06 05:04:10;;;;;;;13.02;9.52;;;;;;;;;;5081427;28;20531;-71
2023/05/06 05:06:37;;;;;;;10.38;9.38;;;;;;;;;;5081668;28;20203;-72
2023/05/06 05:09:03;;;;;;;20.33;9.70;;;;;;;;;;5073214;28;20197;-71
2023/05/06 05:11:30;;;;;;;10.27;9.18;;;;;;;;;;5081334;28;20196;-71
2023/05/06 05:13:57;;;;;;;10.15;9.25;;;;;;;;;;5081174;28;20200;-71
2023/05/06 05:16:23;;;;;;;11.50;9.27;;;;;;;;;;5081288;28;20197;-71
2023/05/06 05:18:49;;;;;;;10.07;9.15;;;;;;;;;;5081064;28;20234;-71
2023/05/06 05:21:16;;;;;;;10.70;9.60;;;;;;;;;;5081394;28;20220;-71
2023/05/06 05:23:43;;;;;;;9.98;9.02;;;;;;;;;;5081744;28;20197;-71
2023/05/06 05:26:09;;;;;;;10.68;9.68;;;;;;;;;;5084953;28;20219;-70
2023/05/06 05:28:36;;;;;;;10.38;9.35;;;;;;;;;;5084884;28;20239;-71
2023/05/06 05:31:02;;;;;;;8.88;8.18;;;;;;;;;;5084773;28;20539;-71
2023/05/06 05:33:29;;;;;;;9.90;8.98;;;;;;;;;;5084790;28;20196;-71
2023/05/06 05:35:55;;;;;;;12.20;8.75;;;;;;;;;;5084759;28;20200;-71
2023/05/06 05:38:22;;;;;;;9.07;8.27;;;;;;;;;;5084994;28;20200;-71
2023/05/06 05:40:49;;;;;;;10.10;9.10;;;;;;;;;;5084301;28;20216;-71
2023/05/06 05:43:16;;;;;;;10.57;9.43;;;;;;;;;;5084612;28;20203;-71
2023/05/06 05:45:42;;;;;;;10.52;9.43;;;;;;;;;;5084569;28;20200;-71
2023/05/06 05:48:08;;;;;;;10.45;9.23;;;;;;;;;;5084688;28;20204;-71
2023/05/06 05:50:35;;;;;;;11.77;8.95;;;;;;;;;;5084651;28;20238;-71
2023/05/06 05:53:01;;;;;;;9.68;8.77;;;;;;;;;;5084534;28;20280;-71
2023/05/06 05:55:29;;;;;;;9.90;9.00;;;;;;;;;;5084449;28;20211;-71
2023/05/06 05:57:57;;;;;;;9.48;8.65;;;;;;;;;;5084212;28;20558;-71
2023/05/06 06:00:23;;;;;;;7.97;7.38;;;;;;;;;;5084387;28;20247;-71
2023/05/06 06:02:49;;;;;;;8.30;7.50;;;;;;;;;;5084384;28;20211;-71
2023/05/06 06:05:15;;;;;;;8.85;7.85;;;;;;;;;;5084278;28;20196;-71
2023/05/06 06:07:42;;;;;;;9.13;8.32;;;;;;;;;;5084086;28;20204;-72
2023/05/06 06:10:08;;;;;;;8.68;7.97;;;;;;;;;;5084015;28;20196;-71
2023/05/06 06:12:35;;;;;;;9.60;8.50;;;;;;;;;;5084045;28;20196;-71
2023/05/06 06:15:02;;;;;;;9.35;8.45;;;;;;;;;;5083688;28;20204;-71
2023/05/06 06:17:30;;;;;;;9.88;8.70;;;;;;;;;;5084159;28;20271;-71
2023/05/06 06:19:57;;;;;;;12.52;10.10;;;;;;;;;;5083873;28;20216;-71
2023/05/06 06:22:24;;;;;;;10.10;9.20;;;;;;;;;;5084132;28;20201;-72
2023/05/06 06:24:52;;;;;;;8.65;7.82;;;;;;;;;;5083920;28;20211;-71
2023/05/06 06:27:18;;;;;;;9.35;8.43;;;;;;;;;;5083776;28;20223;-71
2023/05/06 06:29:47;;;;;;;8.55;7.63;;;;;;;;;;5083970;28;20196;-71
2023/05/06 06:32:14;;;;;;;9.95;7.55;;;;;;;;;;5083961;28;20197;-71
2023/05/06 06:34:41;;;;;;;8.48;7.82;;;;;;;;;;5083935;28;20402;-71
2023/05/06 06:37:09;;;;;;;8.63;7.68;;;;;;;;;;5083593;28;20193;-71
2023/05/06 06:39:35;;;;;;;11.60;7.68;;;;;;;;;;5083418;28;20254;-71
2023/05/06 06:42:03;;;;;;;9.93;8.05;;;;;;;;;;5083551;28;20208;-71
2023/05/06 06:44:29;;;;;;;8.73;8.02;;;;;;;;;;5083399;28;20203;-71
2023/05/06 06:46:55;;;;;;;8.20;7.45;;;;;;;;;;5083549;28;20212;-71
2023/05/06 06:49:23;;;;;;;9.13;8.27;;;;;;;;;;5083484;28;20197;-71
2023/05/06 06:51:51;;;;;;;10.80;8.02;;;;;;;;;;5083403;28;20203;-71
2023/05/06 06:54:17;;;;;;;8.88;8.02;;;;;;;;;;5083387;28;20395;-71
2023/05/06 06:56:43;;;;;;;9.43;7.72;;;;;;;;;;5083343;28;20200;-71
2023/05/06 06:59:09;;;;;;;7.57;6.88;;;;;;;;;;5083515;28;20234;-71
2023/05/06 07:01:36;;;;;;;9.40;7.13;;;;;;;;;;5082906;28;20279;-71
2023/05/06 07:04:02;;;;;;;7.75;7.05;;;;;;;;;;5083053;28;20212;-71
2023/05/06 07:06:29;;;;;;;8.02;6.47;;;;;;;;;;5083090;28;20204;-71
2023/05/06 07:08:56;;;;;;;6.88;6.30;;;;;;;;;;5083306;28;20234;-72
2023/05/06 07:11:22;;;;;;;6.60;6.10;;;;;;;;;;5082731;28;20422;-71
2023/05/06 07:13:48;;;;;;;6.00;5.60;;;;;;;;;;5082875;28;20430;-71
2023/05/06 07:16:15;;;;;;;5.57;5.18;;;;;;;;;;5082918;28;20397;-71
2023/05/06 07:18:41;;;;;;;5.45;5.07;;;;;;;;;;5082790;28;20196;-71
2023/05/06 07:21:07;;;;;;;4.35;3.95;;;;;;;;;;5082650;28;20276;-71
2023/05/06 07:23:35;;;;;;;3.85;3.50;;;;;;;;;;5082798;28;20197;-71
2023/05/06 07:26:01;;;;;;;3.70;3.50;;;;;;;;;;5082537;28;20235;-71
2023/05/06 07:28:27;;;;;;;3.80;3.45;;;;;;;;;;5082748;28;20223;-71
2023/05/06 07:30:54;;;;;;;3.50;3.30;;;;;;;;;;5082879;28;20511;-71
2023/05/06 07:33:20;;;;;;;3.40;3.20;;;;;;;;;;5082726;28;20454;-71
2023/05/06 07:35:46;;;;;;;7.05;3.42;;;;;;;;;;5082678;28;20231;-71
2023/05/06 07:38:13;;;;;;;3.53;2.90;;;;;;;;;;5074593;28;20203;-71
2023/05/06 07:40:40;;;;;;;3.33;3.13;;;;;;;;;;5082781;28;20224;-71
2023/05/06 07:43:08;;;;;;;4.10;3.80;;;;;;;;;;5082707;28;20200;-71
2023/05/06 07:45:34;;;;;;;3.78;3.38;;;;;;;;;;5082447;28;20390;-71
2023/05/06 07:48:00;;;;;;;3.42;3.13;;;;;;;;;;5081999;28;20318;-71
2023/05/06 07:50:26;;;;;;;2.95;2.65;;;;;;;;;;5082394;28;20196;-71
2023/05/06 07:52:53;;;;;;;5.38;3.03;;;;;;;;;;5082236;28;20196;-71
2023/05/06 07:55:19;;;;;;;3.13;2.85;;;;;;;;;;5082663;28;20250;-71
2023/05/06 07:57:46;;;;;;;3.67;3.30;;;;;;;;;;5082305;28;20491;-71
2023/05/06 08:00:13;;;;;;;3.33;2.70;;;;;;;;;;5082252;28;20216;-71
2023/05/06 08:02:42;;;;;;;2.92;2.75;;;;;;;;;;5082190;28;20192;-71
2023/05/06 08:05:09;;;;;;;2.45;2.33;;;;;;;;;;5082049;28;20204;-71
2023/05/06 08:07:36;;;;;;;3.72;3.42;;;;;;;;;;5082084;28;20240;-71
2023/05/06 08:10:02;;;;;;;4.13;3.00;;;;;;;;;;5082140;28;20200;-71
2023/05/06 08:12:28;;;;;;;3.15;2.95;;;;;;;;;;5082125;28;20223;-71
2023/05/06 08:14:56;;;;;;;3.20;2.95;;;;;;;;;;5081985;28;20208;-71
2023/05/06 08:17:22;;;;;;;2.50;2.40;;;;;;;;;;5082083;28;20197;-71
2023/05/06 08:19:48;;;;;;;3.80;2.15;;;;;;;;;;5082006;28;20242;-71
2023/05/06 08:22:15;;;;;;;2.40;2.30;;;;;;;;;;5073613;28;20219;-71
2023/05/06 08:24:41;;;;;;;3.15;2.10;;;;;;;;;;5082182;28;20204;-71
2023/05/06 08:27:07;;;;;;;2.88;2.55;;;;;;;;;;5081996;28;20205;-71
2023/05/06 08:29:34;;;;;;;4.13;2.88;;;;;;;;;;5081852;28;20200;-71
2023/05/06 08:32:01;;;;;;;4.57;2.42;;;;;;;;;;5082132;28;20196;-72
2023/05/06 08:34:28;;;;;;;2.85;2.25;;;;;;;;;;5081809;28;20200;-72
2023/05/06 08:36:54;;;;;;;2.35;2.15;;;;;;;;;;5081834;28;20433;-72
2023/05/06 08:39:21;;;;;;;9.60;2.78;;;;;;;;;;5082018;28;20196;-72
2023/05/06 08:41:48;;;;;;;2.20;1.92;;;;;;;;;;5081685;28;20216;-72
2023/05/06 08:44:15;;;;;;;4.30;2.20;;;;;;;;;;5081747;28;20188;-72
2023/05/06 08:46:41;;;;;;;1.85;1.75;;;;;;;;;;5081817;28;20196;-72
2023/05/06 08:49:09;;;;;;;2.83;2.00;;;;;;;;;;5081569;28;20542;-72
2023/05/06 08:51:37;;;;;;;2.20;1.95;;;;;;;;;;5081745;28;20199;-72
2023/05/06 08:54:03;;;;;;;2.75;2.05;;;;;;;;;;5081761;28;20200;-72
2023/05/06 08:56:30;;;;;;;1.90;1.80;;;;;;;;;;5081792;28;20196;-72
2023/05/06 08:58:57;;;;;;;3.50;1.83;;;;;;;;;;5082451;28;20196;-72
2023/05/06 09:01:25;;;;;;;4.53;1.83;;;;;;;;;;5085250;28;20417;-72
2023/05/06 09:03:51;;;;;;;2.47;1.90;;;;;;;;;;5085286;28;20239;-72
2023/05/06 09:06:19;;;;;;;2.03;1.90;;;;;;;;;;5085236;28;20219;-72
2023/05/06 09:08:45;;;;;;;4.05;1.70;;;;;;;;;;5085377;28;20203;-72
2023/05/06 09:11:22;;;;;;;4.68;1.70;;;;;;;;;;5084952;28;20197;-72
2023/05/06 09:13:48;;;;;;;1.88;1.50;;;;;;;;;;5085222;28;20200;-72
2023/05/06 09:16:26;;;;;;;1.70;1.60;;;;;;;;;;5085091;28;20523;-72
2023/05/06 09:18:52;;;;;;;1.67;1.50;;;;;;;;;;5084511;28;20200;-72
2023/05/06 09:21:20;;;;;;;2.28;1.42;;;;;;;;;;5075775;28;20296;-72
2023/05/06 09:23:46;;;;;;;4.07;1.58;;;;;;;;;;5084504;28;20218;-72
2023/05/06 09:26:12;;;;;;;1.45;1.40;;;;;;;;;;5084580;28;20201;-72
2023/05/06 09:28:39;;;;;;;2.30;2.20;;;;;;;;;;5084613;28;20504;-72
2023/05/06 09:31:06;;;;;;;2.38;1.67;;;;;;;;;;5084393;28;20266;-72
2023/05/06 09:33:35;;;;;;;2.05;2.00;;;;;;;;;;5085003;28;20512;-72
2023/05/06 09:36:01;;;;;;;1.85;1.52;;;;;;;;;;5084911;28;20242;-72
2023/05/06 09:38:29;;;;;;;1.23;1.23;;;;;;;;;;5084873;28;20209;-72
2023/05/06 09:40:55;;;;;;;2.67;1.30;;;;;;;;;;5084252;28;20228;-73
2023/05/06 09:43:22;;;;;;;1.35;1.30;;;;;;;;;;5084445;28;20224;-72
2023/05/06 09:45:48;;;;;;;3.60;1.17;;;;;;;;;;5084394;28;20204;-72
2023/05/06 09:48:14;;;;;;;3.42;1.40;;;;;;;;;;5083944;28;20204;-72
2023/05/06 09:50:42;;;;;;;3.63;1.70;;;;;;;;;;5084297;28;20226;-72
2023/05/06 09:53:09;;;;;;;2.05;1.70;;;;;;;;;;5084258;28;20204;-72
2023/05/06 09:55:37;;;;;;;2.30;2.10;;;;;;;;;;5084343;28;20207;-72
2023/05/06 09:58:05;;;;;;;1.15;1.15;;;;;;;;;;5084076;28;20201;-72
2023/05/06 10:00:31;;;;;;;1.17;1.08;;;;;;;;;;5084241;28;20196;-72
2023/05/06 10:02:58;;;;;;;1.00;0.88;;;;;;;;;;5084052;28;20377;-72
2023/05/06 10:05:25;;;;;;;1.85;1.15;;;;;;;;;;5084173;28;20197;-72
2023/05/06 10:07:52;;;;;;;1.00;1.00;;;;;;;;;;5084098;28;20527;-72
2023/05/06 10:10:19;;;;;;;2.53;1.08;;;;;;;;;;5083265;28;20271;-72
2023/05/06 10:12:48;;;;;;;2.47;1.30;;;;;;;;;;5083863;28;20218;-72
2023/05/06 10:15:15;;;;;;;0.82;0.82;;;;;;;;;;5084103;28;20200;-72
2023/05/06 10:17:43;;;;;;;1.98;1.55;;;;;;;;;;5083836;28;20204;-72
2023/05/06 10:20:13;;;;;;;1.20;1.17;;;;;;;;;;5083882;28;20256;-72
2023/05/06 10:22:46;;;;;;;1.10;0.80;;;;;;;;;;5083874;28;20258;-72
2023/05/06 10:25:16;;;;;;;3.15;0.90;;;;;;;;;;5083772;28;20245;-72
2023/05/06 10:27:44;;;;;;;2.45;1.10;;;;;;;;;;5084099;28;20216;-72
2023/05/06 10:30:14;;;;;;;1.25;1.10;;;;;;;;;;5083757;28;20200;-72
2023/05/06 10:32:42;;;;;;;1.08;1.00;;;;;;;;;;5083973;28;20192;-72
2023/05/06 10:35:10;;;;;;;0.90;0.90;;;;;;;;;;5083711;28;20539;-72
2023/05/06 10:37:37;;;;;;;3.03;1.10;;;;;;;;;;5083598;28;20259;-72
2023/05/06 10:40:04;;;;;;;1.00;1.00;;;;;;;;;;5083558;28;20208;-72
2023/05/06 10:42:33;;;;;;;0.80;0.80;;;;;;;;;;5083773;28;20465;-72
2023/05/06 10:45:00;;;;;;;1.42;1.00;;;;;;;;;;5083524;28;20204;-72
2023/05/06 10:47:28;;;;;;;1.40;1.20;;;;;;;;;;5083491;28;20475;-72
2023/05/06 10:50:13;;;;;;;1.50;1.30;;;;;;;;;;5083343;28;20192;-72
2023/05/06 10:52:45;;;;;;;2.38;1.30;;;;;;;;;;5077560;28;20274;-72
2023/05/06 10:55:24;;;;;;;1.50;1.50;;;;;;;;;;5083278;28;20200;-72
2023/05/06 10:57:53;;;;;;;0.90;0.90;;;;;;;;;;5083426;28;20202;-72
2023/05/06 11:00:19;;;;;;;0.95;0.80;;;;;;;;;;5082783;28;20241;-73
2023/05/06 11:02:49;;;;;;;1.20;0.90;;;;;;;;;;5082974;28;20215;-61
2023/05/06 11:05:16;;;;;;;0.95;0.80;;;;;;;;;;5083222;28;20200;-61
2023/05/06 11:07:42;;;;;;;0.70;0.70;;;;;;;;;;5082966;28;20224;-61
2023/05/06 11:10:10;;;;;;;2.60;0.90;;;;;;;;;;5082903;28;20503;-61
2023/05/06 11:12:43;;;;;;;1.63;0.80;;;;;;;;;;5082951;28;20226;-61
2023/05/06 11:15:19;;;;;;;3.88;0.80;;;;;;;;;;5082593;28;20211;-61
2023/05/06 11:17:47;;;;;;;1.63;0.63;;;;;;;;;;5082903;28;20265;-61
2023/05/06 11:20:20;;;;;;;0.82;0.70;;;;;;;;;;5082792;28;20214;-61
2023/05/06 11:22:47;;;;;;;2.13;0.75;;;;;;;;;;5082051;28;20219;-61
2023/05/06 11:25:13;;;;;;;1.70;0.60;;;;;;;;;;5082791;28;20204;-61
2023/05/06 11:27:39;;;;;;;2.28;0.90;;;;;;;;;;5082420;28;20216;-61
2023/05/06 11:30:06;;;;;;;1.75;1.05;;;;;;;;;;5082571;28;20207;-61
2023/05/06 11:32:33;;;;;;;1.02;0.93;;;;;;;;;;5082846;28;20219;-61
2023/05/06 11:35:00;;;;;;;1.65;0.90;;;;;;;;;;5082686;28;20207;-61
2023/05/06 11:37:27;;;;;;;1.92;0.90;;;;;;;;;;5074387;28;20196;-62
2023/05/06 11:39:53;;;;;;;0.70;0.70;;;;;;;;;;5080186;28;20203;-61
2023/05/06 11:42:24;;;;;;;1.63;0.80;;;;;;;;;;5068335;28;20259;-62
2023/05/06 11:44:50;;;;;;;2.05;0.90;;;;;;;;;;5063964;28;20212;-60
2023/05/06 11:47:16;;;;;;;2.25;1.00;;;;;;;;;;5067269;28;20502;-60
2023/05/06 11:49:43;;;;;;;3.05;1.00;;;;;;;;;;5060058;28;20379;-61
2023/05/06 11:52:11;;;;;;;0.90;0.82;;;;;;;;;;5060006;28;20209;-60
2023/05/06 11:54:38;;;;;;;1.17;0.80;;;;;;;;;;5071858;28;20215;-60
2023/05/06 11:57:05;;;;;;;1.17;0.93;;;;;;;;;;5063284;28;20504;-60
2023/05/06 11:59:32;;;;;;;2.72;1.00;;;;;;;;;;5066069;28;20208;-60
2023/05/06 12:01:59;;;;;;;1.73;0.85;;;;;;;;;;5076375;28;20483;-63
2023/05/06 12:04:25;;;;;;;1.20;1.10;;;;;;;;;;5065996;28;20530;-60
2023/05/06 12:06:52;;;;;;;0.70;0.70;;;;;;;;;;5075526;28;20473;-60
2023/05/06 12:09:21;;;;;;;2.53;0.73;;;;;;;;;;5074837;28;20215;-61
2023/05/06 12:11:48;;;;;;;4.50;1.25;;;;;;;;;;5075147;28;20211;-62
2023/05/06 12:14:15;;;;;;;2.28;1.00;;;;;;;;;;5075562;28;20231;-61
2023/05/06 12:16:41;;;;;;;9.25;1.13;;;;;;;;;;5073686;28;20215;-61
2023/05/06 12:19:08;;;;;;;1.05;0.75;;;;;;;;;;5078081;28;20219;-61
2023/05/06 12:21:37;;;;;;;3.83;1.00;;;;;;;;;;5074510;28;20558;-61
2023/05/06 12:24:03;;;;;;;4.13;0.77;;;;;;;;;;5070934;28;20208;-61
2023/05/06 12:26:41;;;;;;;0.80;0.80;;;;;;;;;;5072099;28;20250;-61
2023/05/06 12:29:09;;;;;;;0.90;0.88;;;;;;;;;;5067842;28;20303;-64
2023/05/06 12:31:36;;;;;;;3.78;1.00;;;;;;;;;;5070978;28;20205;-60
2023/05/06 12:34:02;;;;;;;4.25;0.90;;;;;;;;;;5075188;28;20273;-61
2023/05/06 12:36:29;;;;;;;2.25;0.75;;;;;;;;;;5079265;28;20208;-62
2023/05/06 12:38:56;;;;;;;3.22;1.00;;;;;;;;;;5063280;28;20208;-61
2023/05/06 12:41:23;;;;;;;2.30;0.90;;;;;;;;;;5063096;28;20221;-61
2023/05/06 12:43:51;;;;;;;2.00;0.82;;;;;;;;;;5063416;28;20488;-60
2023/05/06 12:46:18;;;;;;;0.95;0.60;;;;;;;;;;5063533;28;20217;-61
2023/05/06 12:48:55;;;;;;;0.68;0.68;;;;;;;;;;5071647;28;20200;-61
2023/05/06 12:51:22;;;;;;;0.82;0.82;;;;;;;;;;5063265;28;20269;-61
2023/05/06 12:53:48;;;;;;;2.50;2.30;;;;;;;;;;5077491;28;20483;-61
2023/05/06 12:56:14;;;;;;;3.53;1.08;;;;;;;;;;5085286;28;20222;-61
2023/05/06 12:58:40;;;;;;;0.60;0.60;;;;;;;;;;5085588;28;20202;-61
2023/05/06 13:01:08;;;;;;;2.40;0.52;;;;;;;;;;5085413;28;20224;-60
2023/05/06 13:03:34;;;;;;;0.88;0.73;;;;;;;;;;5085476;28;20212;-61
2023/05/06 13:06:01;;;;;;;1.48;0.80;;;;;;;;;;5085553;28;20207;-61
2023/05/06 13:08:28;;;;;;;0.57;0.57;;;;;;;;;;5085447;28;20196;-61
2023/05/06 13:10:54;;;;;;;1.05;0.65;;;;;;;;;;5085540;28;20550;-61
2023/05/06 13:13:20;;;;;;;0.70;0.60;;;;;;;;;;5085440;28;20226;-61
2023/05/06 13:15:47;;;;;;;1.13;0.68;;;;;;;;;;5085259;28;20203;-60
2023/05/06 13:18:15;;;;;;;1.48;0.70;;;;;;;;;;5085479;28;20212;-60
2023/05/06 13:20:41;;;;;;;2.35;0.90;;;;;;;;;;5085214;28;20196;-60
2023/05/06 13:23:07;;;;;;;0.80;0.80;;;;;;;;;;5085100;28;20219;-61
2023/05/06 13:25:33;;;;;;;3.92;1.02;;;;;;;;;;5085205;28;20385;-61
2023/05/06 13:28:00;;;;;;;2.33;0.90;;;;;;;;;;5084582;28;20451;-60
2023/05/06 13:30:26;;;;;;;0.70;0.60;;;;;;;;;;5084850;28;20524;-60
2023/05/06 13:32:52;;;;;;;0.88;0.88;;;;;;;;;;5085055;28;20196;-60
2023/05/06 13:35:20;;;;;;;0.70;0.70;;;;;;;;;;5085210;28;20257;-61
2023/05/06 13:37:46;;;;;;;0.82;0.75;;;;;;;;;;5085219;28;20195;-60
2023/05/06 13:40:13;;;;;;;1.35;0.63;;;;;;;;;;5084528;28;20204;-60
2023/05/06 13:42:39;;;;;;;1.50;0.70;;;;;;;;;;5084955;28;20216;-60
2023/05/06 13:45:06;;;;;;;2.30;0.85;;;;;;;;;;5083624;28;20267;-60
2023/05/06 13:47:32;;;;;;;3.25;0.57;;;;;;;;;;5085163;28;20238;-60
2023/05/06 13:49:59;;;;;;;5.40;1.20;;;;;;;;;;5084614;28;20202;-60
2023/05/06 13:52:26;;;;;;;1.17;0.80;;;;;;;;;;5084777;28;20200;-60
2023/05/06 13:54:53;;;;;;;3.95;0.60;;;;;;;;;;5084783;28;20250;-60
2023/05/06 13:57:19;;;;;;;2.90;0.70;;;;;;;;;;5085093;28;20490;-60
2023/05/06 13:59:45;;;;;;;0.73;0.60;;;;;;;;;;5084263;28;20522;-60
2023/05/06 14:02:11;;;;;;;1.17;0.65;;;;;;;;;;5084599;28;20542;-60
2023/05/06 14:04:38;;;;;;;0.98;0.70;;;;;;;;;;5084711;28;20539;-60
2023/05/06 14:07:04;;;;;;;3.55;0.60;;;;;;;;;;5084467;28;20392;-60
2023/05/06 14:09:32;;;;;;;0.73;0.60;;;;;;;;;;5084137;28;20381;-61
2023/05/06 14:11:58;;;;;;;0.80;0.70;;;;;;;;;;5084184;28;20263;-60
2023/05/06 14:14:24;;;;;;;1.40;0.70;;;;;;;;;;5084121;28;20212;-61
2023/05/06 14:16:53;;;;;;;3.92;0.80;;;;;;;;;;5084207;28;20202;-61
2023/05/06 14:19:19;;;;;;;0.70;0.63;;;;;;;;;;5083921;28;20561;-61
2023/05/06 14:21:45;;;;;;;2.20;0.60;;;;;;;;;;5083810;28;20203;-61
2023/05/06 14:24:12;;;;;;;0.93;0.68;;;;;;;;;;5083909;28;20199;-60
2023/05/06 14:26:40;;;;;;;3.90;1.00;;;;;;;;;;5083949;28;20401;-61
2023/05/06 14:29:06;;;;;;;0.60;0.60;;;;;;;;;;5083977;28;20227;-61
2023/05/06 14:31:33;;;;;;;1.15;1.00;;;;;;;;;;5083702;28;20204;-61
2023/05/06 14:33:59;;;;;;;1.75;0.80;;;;;;;;;;5083849;28;20199;-60
2023/05/06 14:36:25;;;;;;;0.73;0.73;;;;;;;;;;5083649;28;20204;-60